Time;durP1;ratioP1;P1;durP2;ratioP2;P2;SDS_P1;SDS_P2;PMS_P1;PMS_P2;Temp;Humidity;BMP_temperature;BMP_pressure;BME280_temperature;BME280_humidity;BME280_pressure;Samples;Min_cycle;Max_cycle;Signal;HPM_P1;HPM_P2
2023/10/08 00:01:14;;;;;;;7.60;1.90;;;;;;;11.87;81.66;98312.55;107507;1253;60531;-39
2023/10/08 00:03:58;;;;;;;5.30;2.30;;;;;;;11.89;81.30;98321.87;107552;1253;60021;-39
2023/10/08 00:06:27;;;;;;;6.00;2.70;;;;;;;11.84;81.20;98328.39;107708;1253;73902;-39
2023/10/08 00:08:59;;;;;;;6.30;2.30;;;;;;;11.78;81.26;98325.00;107482;1253;67966;-39
2023/10/08 00:11:30;;;;;;;4.90;1.90;;;;;;;11.79;78.35;98326.39;107630;1253;71212;-39
2023/10/08 00:14:01;;;;;;;3.80;2.00;;;;;;;11.78;74.32;98325.70;107503;1253;60413;-40
2023/10/08 00:16:28;;;;;;;5.60;2.20;;;;;;;11.70;72.06;98329.33;107504;1253;60339;-39
2023/10/08 00:19:00;;;;;;;5.50;2.10;;;;;;;11.59;70.57;98335.09;107510;1253;72841;-39
2023/10/08 00:21:27;;;;;;;6.40;1.90;;;;;;;11.44;67.57;98344.41;107648;1253;67360;-39
2023/10/08 00:23:57;;;;;;;5.70;1.90;;;;;;;11.26;67.48;98349.48;107619;1253;72673;-39
2023/10/08 00:26:27;;;;;;;5.10;2.00;;;;;;;11.09;67.31;98355.52;107629;1254;59778;-39
2023/10/08 00:28:59;;;;;;;3.80;1.60;;;;;;;10.92;66.90;98349.30;107550;1253;58848;-39
2023/10/08 00:31:31;;;;;;;5.40;1.80;;;;;;;10.82;67.12;98347.73;107490;1253;73192;-39
2023/10/08 00:33:59;;;;;;;5.60;2.20;;;;;;;10.74;66.77;98351.27;107630;1253;67939;-39
2023/10/08 00:36:26;;;;;;;6.10;2.00;;;;;;;10.60;66.96;98359.84;107490;1257;72750;-39
2023/10/08 00:38:59;;;;;;;5.00;2.10;;;;;;;10.48;67.79;98367.79;107610;1253;60339;-39
2023/10/08 00:41:32;;;;;;;4.60;1.90;;;;;;;10.36;68.26;98375.19;107523;1253;61001;-39
2023/10/08 00:44:00;;;;;;;5.20;2.20;;;;;;;10.27;68.73;98366.00;107619;1252;73856;-39
2023/10/08 00:46:35;;;;;;;6.50;2.00;;;;;;;10.26;68.56;98369.33;107499;1253;67718;-39
2023/10/08 00:51:47;;;;;;;5.10;2.20;;;;;;;10.23;69.20;98373.02;107283;1254;60451;-38
2023/10/08 00:54:17;;;;;;;5.30;2.00;;;;;;;10.18;69.31;98381.45;107518;1253;60449;-38
2023/10/08 00:59:23;;;;;;;3.80;1.80;;;;;;;10.10;69.84;98383.02;107500;1253;68232;-38
2023/10/08 01:01:52;;;;;;;3.40;2.00;;;;;;;10.10;70.09;98375.19;107431;1253;72686;-38
2023/10/08 01:04:26;;;;;;;4.90;1.90;;;;;;;10.09;70.59;98381.29;107543;1252;60422;-39
2023/10/08 01:06:59;;;;;;;6.00;2.40;;;;;;;10.03;71.41;98377.48;107521;1253;60526;-38
2023/10/08 01:10:13;;;;;;;5.20;2.30;;;;;;;9.96;72.57;98371.27;107518;1253;72591;-38
2023/10/08 01:12:43;;;;;;;4.40;2.00;;;;;;;9.87;73.50;98365.56;107394;1253;67573;-38
2023/10/08 01:15:23;;;;;;;6.50;2.10;;;;;;;9.85;72.67;98360.59;107472;1257;71426;-38
2023/10/08 01:18:06;;;;;;;6.90;2.30;;;;;;;9.80;72.22;98361.89;107478;1253;60333;-38
2023/10/08 01:20:34;;;;;;;6.80;1.70;;;;;;;9.72;72.16;98357.52;107476;1253;60370;-39
2023/10/08 01:23:09;;;;;;;4.80;1.80;;;;;;;9.66;72.54;98350.20;107452;1253;74282;-38
2023/10/08 01:25:38;;;;;;;6.70;2.00;;;;;;;9.61;72.34;98346.08;107523;1253;67570;-38
2023/10/08 01:28:49;;;;;;;2.60;1.30;;;;;;;9.61;70.74;98349.02;107533;1253;71681;-38
2023/10/08 01:31:03;;;;;;;3.50;1.90;;;;;;;9.60;69.59;98342.59;107486;1253;60437;-38
2023/10/08 01:33:37;;;;;;;4.60;1.90;;;;;;;9.55;69.66;98333.82;107499;1253;60322;-38
2023/10/08 01:36:05;;;;;;;4.20;1.90;;;;;;;9.51;69.26;98341.38;107456;1253;72398;-38
2023/10/08 01:38:35;;;;;;;4.00;1.80;;;;;;;9.46;69.18;98340.71;107520;1253;66301;-38
2023/10/08 01:41:05;;;;;;;4.60;1.70;;;;;;;9.41;69.53;98343.54;107498;1257;72722;-38
2023/10/08 01:43:33;;;;;;;4.00;1.80;;;;;;;9.42;69.90;98342.46;107488;1254;61751;-38
2023/10/08 01:46:03;;;;;;;4.50;1.80;;;;;;;9.42;70.06;98344.25;107511;1253;60576;-38
2023/10/08 01:48:37;;;;;;;3.10;1.70;;;;;;;9.37;69.68;98343.05;107560;1253;73876;-38
2023/10/08 01:51:24;;;;;;;5.10;2.40;;;;;;;9.32;69.81;98346.10;107469;1253;66602;-38
2023/10/08 01:53:54;;;;;;;6.20;1.60;;;;;;;9.29;70.06;98347.54;107509;1253;72661;-39
2023/10/08 01:56:22;;;;;;;5.00;1.60;;;;;;;9.25;69.67;98345.73;107490;1255;60403;-38
2023/10/08 01:58:49;;;;;;;5.70;1.80;;;;;;;9.27;69.15;98341.81;107458;1253;60293;-38
2023/10/08 02:01:20;;;;;;;4.20;1.80;;;;;;;9.30;69.27;98344.99;107424;1258;74310;-39
2023/10/08 02:03:48;;;;;;;5.50;2.20;;;;;;;9.21;69.07;98337.05;107533;1253;67645;-39
2023/10/08 02:06:16;;;;;;;7.40;1.90;;;;;;;9.24;69.29;98341.78;107496;1257;72768;-38
2023/10/08 02:08:44;;;;;;;6.10;2.00;;;;;;;9.20;69.64;98338.44;107486;1253;60457;-38
2023/10/08 02:11:12;;;;;;;4.10;2.00;;;;;;;9.16;69.78;98341.58;107476;1252;60512;-38
2023/10/08 02:13:39;;;;;;;4.40;2.00;;;;;;;9.14;69.85;98342.48;107464;1253;73880;-38
2023/10/08 02:16:07;;;;;;;6.20;2.20;;;;;;;9.19;69.64;98348.71;107465;1257;66415;-38
2023/10/08 02:18:35;;;;;;;4.50;2.20;;;;;;;9.19;69.73;98346.48;107462;1253;72683;-38
2023/10/08 02:21:05;;;;;;;3.70;2.00;;;;;;;9.15;69.84;98345.20;107491;1253;60284;-38
2023/10/08 02:23:34;;;;;;;5.70;2.10;;;;;;;9.10;69.78;98351.58;107477;1253;60541;-38
2023/10/08 02:26:02;;;;;;;6.10;2.10;;;;;;;9.06;69.79;98356.16;107479;1253;74326;-38
2023/10/08 02:28:30;;;;;;;4.10;1.90;;;;;;;9.08;69.40;98351.40;107465;1253;67938;-38
2023/10/08 02:30:58;;;;;;;4.60;2.00;;;;;;;9.11;69.34;98350.03;107517;1253;71439;-38
2023/10/08 02:33:26;;;;;;;3.70;1.60;;;;;;;9.07;69.17;98342.50;107454;1252;60605;-38
2023/10/08 02:35:54;;;;;;;4.90;2.40;;;;;;;9.02;69.12;98347.95;107476;1253;60521;-38
2023/10/08 02:38:22;;;;;;;4.80;1.90;;;;;;;8.99;68.85;98345.14;107462;1253;72964;-38
2023/10/08 02:40:50;;;;;;;4.10;1.80;;;;;;;8.95;68.79;98349.58;107478;1253;67668;-38
2023/10/08 02:43:20;;;;;;;4.70;2.30;;;;;;;8.95;68.85;98354.91;107446;1259;72725;-38
2023/10/08 02:45:49;;;;;;;3.40;1.50;;;;;;;9.01;68.74;98357.20;107491;1253;60438;-38
2023/10/08 02:48:20;;;;;;;3.90;1.90;;;;;;;9.03;68.78;98359.01;107481;1253;60630;-38
2023/10/08 02:50:48;;;;;;;6.60;1.80;;;;;;;9.01;68.22;98363.55;106773;1257;1002859;-38
2023/10/08 02:53:20;;;;;;;5.10;2.60;;;;;;;8.97;67.97;98368.38;107504;1253;67935;-38
2023/10/08 02:55:49;;;;;;;4.70;1.90;;;;;;;8.93;68.01;98371.44;107507;1253;72717;-38
2023/10/08 02:58:20;;;;;;;6.10;2.10;;;;;;;8.91;68.22;98377.50;107502;1253;60764;-38
2023/10/08 03:00:48;;;;;;;3.10;1.90;;;;;;;8.94;67.93;98379.32;107518;1253;60455;-38
2023/10/08 03:03:18;;;;;;;5.70;1.90;;;;;;;8.97;67.69;98377.09;107469;1253;74141;-38
2023/10/08 03:05:56;;;;;;;3.50;1.70;;;;;;;8.95;67.86;98375.77;107498;1253;66592;-38
2023/10/08 03:08:24;;;;;;;4.30;1.90;;;;;;;8.91;67.98;98375.58;107421;1253;72714;-38
2023/10/08 03:10:55;;;;;;;5.10;2.20;;;;;;;8.89;68.04;98380.73;107497;1253;60582;-39
2023/10/08 03:13:26;;;;;;;2.70;1.60;;;;;;;8.85;68.06;98385.09;107395;1257;60581;-39
2023/10/08 03:20:39;;;;;;;3.50;1.60;;;;;;;8.86;68.54;98383.48;104081;1293;601100;-37
2023/10/08 03:23:25;;;;;;;3.50;1.80;;;;;;;8.80;68.44;98383.58;106557;1266;60064;-39
2023/10/08 03:26:11;;;;;;;4.50;1.80;;;;;;;8.76;68.75;98384.77;106474;1267;60030;-38
2023/10/08 03:28:41;;;;;;;2.80;1.60;;;;;;;8.70;68.61;98374.52;106617;1266;72288;-38
2023/10/08 03:31:17;;;;;;;4.70;1.70;;;;;;;8.65;68.88;98382.66;106544;1267;67647;-38
2023/10/08 03:33:51;;;;;;;4.60;1.90;;;;;;;8.68;69.13;98394.80;106554;1265;172612;-38
2023/10/08 03:36:33;;;;;;;5.40;2.00;;;;;;;8.73;69.27;98388.20;106718;1267;60173;-39
2023/10/08 03:39:12;;;;;;;4.40;1.80;;;;;;;8.70;69.17;98385.55;106749;1266;60061;-38
2023/10/08 03:41:41;;;;;;;6.50;2.10;;;;;;;8.66;69.36;98378.03;106718;1267;72305;-38
2023/10/08 03:44:16;;;;;;;4.30;1.80;;;;;;;8.63;69.18;98374.98;106734;1267;67010;-38
2023/10/08 03:46:46;;;;;;;4.30;1.90;;;;;;;8.61;69.54;98382.54;106640;1267;72690;-39
2023/10/08 03:51:51;;;;;;;3.80;2.00;;;;;;;8.69;69.32;98393.34;106692;1264;59707;-38
2023/10/08 03:54:29;;;;;;;5.30;1.70;;;;;;;8.67;69.49;98393.71;106732;1265;71792;-38
2023/10/08 03:56:57;;;;;;;9.10;2.20;;;;;;;8.63;69.39;98396.14;106779;1266;67608;-38
2023/10/08 03:59:31;;;;;;;4.20;1.70;;;;;;;8.59;69.55;98397.48;106789;1266;71488;-38
2023/10/08 04:04:48;;;;;;;4.30;2.00;;;;;;;8.53;69.71;98412.52;106735;1267;60193;-38
2023/10/08 04:10:49;;;;;;;7.40;2.10;;;;;;;8.59;69.57;98406.66;106738;1267;67591;-38
2023/10/08 04:12:54;;;;;;;3.70;2.00;;;;;;;8.57;69.56;98421.30;106816;1267;72728;-38
2023/10/08 04:15:21;;;;;;;3.90;1.90;;;;;;;8.55;69.69;98427.92;106755;1266;60154;-38
2023/10/08 04:17:50;;;;;;;4.00;2.10;;;;;;;8.51;69.67;98421.24;106743;1267;60632;-38
2023/10/08 04:20:32;;;;;;;5.10;2.40;;;;;;;8.51;69.79;98424.79;106710;1266;73028;-38
2023/10/08 04:23:08;;;;;;;3.20;2.00;;;;;;;8.51;69.73;98438.77;106760;1267;67762;-38
2023/10/08 04:25:36;;;;;;;3.60;1.90;;;;;;;8.56;69.31;98445.23;106729;1267;71455;-38
2023/10/08 04:28:04;;;;;;;3.70;1.90;;;;;;;8.60;69.04;98453.46;106745;1269;59421;-38
2023/10/08 04:30:33;;;;;;;4.50;2.10;;;;;;;8.58;68.99;98462.45;106736;1267;60061;-38
2023/10/08 04:33:06;;;;;;;4.00;1.90;;;;;;;8.56;69.09;98461.66;106772;1267;73134;-38
2023/10/08 04:38:23;;;;;;;4.40;1.70;;;;;;;8.51;69.21;98456.44;106726;1266;71512;-38
2023/10/08 04:40:53;;;;;;;5.30;1.80;;;;;;;8.51;68.93;98457.05;106802;1264;61763;-38
2023/10/08 04:43:30;;;;;;;5.50;1.80;;;;;;;8.57;68.50;98447.48;106820;1269;60033;-38
2023/10/08 04:45:58;;;;;;;4.40;1.80;;;;;;;8.64;68.40;98452.42;106772;1264;72055;-38
2023/10/08 04:48:32;;;;;;;4.10;1.90;;;;;;;8.64;68.24;98452.05;106721;1266;67938;-38
2023/10/08 04:51:02;;;;;;;4.10;1.80;;;;;;;8.64;67.90;98447.56;106720;1266;71481;-38
2023/10/08 04:53:36;;;;;;;5.10;2.20;;;;;;;8.63;68.11;98440.69;106736;1266;59633;-38
2023/10/08 04:56:06;;;;;;;5.00;2.00;;;;;;;8.66;67.83;98447.35;106802;1266;59536;-38
2023/10/08 04:58:36;;;;;;;4.90;2.00;;;;;;;8.66;67.38;98453.15;106782;1263;73086;-38
2023/10/08 05:09:12;;;;;;;6.50;2.10;;;;;;;8.81;66.83;98434.47;106743;1267;60058;-38
2023/10/08 05:17:21;;;;;;;3.90;1.90;;;;;;;8.84;65.73;98479.06;106774;1266;71733;-38
2023/10/08 05:33:06;;;;;;;4.80;1.90;;;;;;;8.73;64.16;98498.30;106833;1261;61974;-38
2023/10/08 05:38:13;;;;;;;4.30;1.90;;;;;;;8.88;64.60;98506.29;106842;1263;73029;-37
2023/10/08 06:18:31;;;;;;;5.50;1.90;;;;;;;8.62;60.13;98531.89;106862;1262;73098;-39
2023/10/08 06:21:11;;;;;;;5.20;2.00;;;;;;;8.62;60.12;98545.94;106865;1263;65926;-38
2023/10/08 06:23:41;;;;;;;;;;;;;;;8.61;59.96;98543.71;106969;1262;72735;-38
2023/10/08 06:28:38;;;;;;;6.40;2.80;;;;;;;8.58;60.65;98539.89;106862;1264;59845;-38
2023/10/08 06:31:11;;;;;;;4.90;2.80;;;;;;;8.58;60.70;98544.98;106991;1266;71835;-38
2023/10/08 06:33:40;;;;;;;7.10;3.20;;;;;;;8.58;60.76;98555.55;106848;1263;68145;-38
2023/10/08 06:38:44;;;;;;;6.70;2.20;;;;;;;8.58;59.78;98565.34;106117;1262;1003085;-37
2023/10/08 06:41:17;;;;;;;7.90;2.00;;;;;;;8.57;59.92;98570.75;106875;1262;60069;-38
2023/10/08 06:44:02;;;;;;;4.00;1.70;;;;;;;8.60;58.70;98574.65;106847;1264;73541;-38
2023/10/08 06:46:32;;;;;;;2.70;1.30;;;;;;;8.61;56.74;98571.49;106868;1266;67595;-38
2023/10/08 06:49:02;;;;;;;2.70;1.50;;;;;;;8.62;56.72;98575.14;106825;1266;72744;-38
2023/10/08 06:51:32;;;;;;;2.80;1.50;;;;;;;8.63;56.33;98581.70;107058;1262;59950;-38
2023/10/08 06:54:02;;;;;;;3.60;1.40;;;;;;;8.63;56.41;98577.16;107048;1258;60078;-38
2023/10/08 06:56:33;;;;;;;2.70;1.20;;;;;;;8.63;56.00;98583.25;107189;1257;73075;-38
2023/10/08 06:59:02;;;;;;;4.50;1.50;;;;;;;8.62;55.58;98590.95;107253;1257;67682;-38
2023/10/08 07:01:39;;;;;;;3.40;1.40;;;;;;;8.62;55.71;98591.18;107238;1257;72682;-38
2023/10/08 07:04:11;;;;;;;2.10;1.00;;;;;;;8.61;56.11;98588.24;107224;1263;59746;-38
2023/10/08 07:06:50;;;;;;;3.70;1.20;;;;;;;8.62;56.23;98592.49;107204;1263;59177;-38
2023/10/08 07:11:56;;;;;;;3.60;1.50;;;;;;;8.62;55.86;98584.16;105731;1257;1003074;-38
2023/10/08 07:14:28;;;;;;;4.10;1.50;;;;;;;8.62;56.10;98579.54;107275;1260;72748;-38
2023/10/08 07:17:00;;;;;;;4.40;1.50;;;;;;;8.62;55.77;98584.23;107206;1260;59733;-38
2023/10/08 07:19:36;;;;;;;4.90;1.10;;;;;;;8.59;55.17;98582.27;107271;1257;60040;-38
2023/10/08 07:22:18;;;;;;;4.20;1.60;;;;;;;8.57;55.61;98592.96;107240;1262;72055;-38
2023/10/08 07:24:50;;;;;;;3.10;1.20;;;;;;;8.55;56.19;98598.20;107258;1257;67601;-38
2023/10/08 07:27:24;;;;;;;3.40;1.40;;;;;;;8.55;56.25;98599.60;107234;1263;72686;-38
2023/10/08 07:29:55;;;;;;;4.30;1.60;;;;;;;8.57;56.19;98599.77;107276;1257;60259;-39
2023/10/08 07:32:25;;;;;;;6.20;1.50;;;;;;;8.57;55.49;98593.28;107241;1262;60046;-38
2023/10/08 07:35:03;;;;;;;2.30;1.30;;;;;;;8.59;55.97;98602.19;107258;1258;73056;-38
2023/10/08 07:37:32;;;;;;;3.10;1.50;;;;;;;8.62;56.19;98605.55;107216;1257;67601;-38
2023/10/08 07:40:02;;;;;;;2.70;1.50;;;;;;;8.65;56.21;98602.82;107248;1258;73032;-38
2023/10/08 07:42:30;;;;;;;;;;;;;;;8.69;56.47;98603.73;107234;1262;60331;-38
2023/10/08 07:45:00;;;;;;;5.30;1.80;;;;;;;8.75;56.62;98605.20;107260;1263;60324;-39
2023/10/08 07:47:28;;;;;;;2.50;1.30;;;;;;;8.79;56.50;98608.19;107243;1257;74158;-38
2023/10/08 07:49:56;;;;;;;6.10;1.80;;;;;;;8.82;56.46;98610.00;107259;1263;67591;-37
2023/10/08 07:52:24;;;;;;;4.70;1.70;;;;;;;8.88;56.38;98603.91;107225;1258;71391;-37
2023/10/08 07:54:53;;;;;;;5.40;1.60;;;;;;;8.94;56.17;98610.30;107203;1262;60565;-37
2023/10/08 07:57:26;;;;;;;2.70;1.70;;;;;;;9.00;56.28;98615.20;107233;1257;60454;-37
2023/10/08 08:00:17;;;;;;;2.90;1.40;;;;;;;9.08;55.81;98616.91;107258;1257;73834;-38
2023/10/08 08:02:42;;;;;;;3.60;1.70;;;;;;;9.16;55.26;98614.94;107221;1262;67583;-38
2023/10/08 08:05:09;;;;;;;6.10;1.80;;;;;;;9.23;55.20;98617.47;107198;1262;72667;-37
2023/10/08 08:07:38;;;;;;;4.60;1.90;;;;;;;9.28;55.02;98619.08;107220;1258;60332;-38
2023/10/08 08:10:10;;;;;;;3.40;1.80;;;;;;;9.30;54.53;98609.83;107226;1258;60521;-37
2023/10/08 08:12:38;;;;;;;5.20;1.60;;;;;;;9.32;55.29;98610.23;107229;1257;73835;-38
2023/10/08 08:15:14;;;;;;;4.10;1.80;;;;;;;9.36;55.35;98617.72;107238;1261;67779;-38
2023/10/08 08:17:43;;;;;;;6.80;2.00;;;;;;;9.38;54.37;98625.16;107233;1263;72723;-38
2023/10/08 08:20:17;;;;;;;2.80;1.70;;;;;;;9.34;54.08;98624.65;107271;1262;60554;-38
2023/10/08 08:22:54;;;;;;;4.60;1.40;;;;;;;9.31;54.49;98623.45;107265;1263;60444;-38
2023/10/08 08:25:42;;;;;;;4.30;1.30;;;;;;;9.32;54.34;98625.47;107266;1263;73863;-38
2023/10/08 08:28:16;;;;;;;3.40;1.40;;;;;;;9.34;53.96;98634.99;107206;1258;67597;-38
2023/10/08 08:30:48;;;;;;;4.20;1.30;;;;;;;9.34;53.70;98631.14;107248;1263;71433;-38
2023/10/08 08:33:22;;;;;;;4.60;1.60;;;;;;;9.38;54.08;98630.17;107203;1257;60558;-38
2023/10/08 08:36:05;;;;;;;2.30;1.40;;;;;;;9.43;53.57;98621.57;107264;1258;60527;-38
2023/10/08 08:38:33;;;;;;;3.60;1.10;;;;;;;9.53;53.49;98612.58;107216;1257;73966;-38
2023/10/08 08:41:07;;;;;;;4.90;1.90;;;;;;;9.69;53.74;98611.50;107171;1259;67688;-38
2023/10/08 08:43:35;;;;;;;3.30;1.50;;;;;;;9.90;53.79;98614.56;107225;1262;71695;-38
2023/10/08 08:46:05;;;;;;;3.40;1.30;;;;;;;10.08;53.04;98618.85;106536;1257;1003396;-38
2023/10/08 08:48:33;;;;;;;1.50;1.20;;;;;;;10.20;50.38;98611.77;107256;1257;60447;-38
2023/10/08 08:51:01;;;;;;;4.20;1.20;;;;;;;10.26;49.92;98611.12;107229;1262;73821;-38
2023/10/08 08:53:29;;;;;;;3.50;1.40;;;;;;;10.31;49.73;98616.11;107278;1258;67569;-38
2023/10/08 08:55:57;;;;;;;3.90;1.60;;;;;;;10.30;48.18;98618.14;107233;1263;72693;-38
2023/10/08 08:58:25;;;;;;;2.40;1.10;;;;;;;10.29;47.93;98619.20;107101;1257;60359;-38
2023/10/08 09:00:56;;;;;;;3.50;1.20;;;;;;;10.33;47.59;98618.37;107235;1257;60434;-38
2023/10/08 09:03:30;;;;;;;3.40;1.50;;;;;;;10.38;47.76;98624.92;107211;1257;72535;-38
2023/10/08 09:05:58;;;;;;;4.70;1.20;;;;;;;10.43;47.74;98617.21;107213;1262;67674;-38
2023/10/08 09:08:33;;;;;;;4.40;1.40;;;;;;;10.46;47.14;98622.11;107205;1257;72676;-38
2023/10/08 09:11:01;;;;;;;3.60;1.10;;;;;;;10.49;46.35;98621.21;107223;1257;60171;-38
2023/10/08 09:13:28;;;;;;;4.30;1.40;;;;;;;10.56;45.79;98623.27;107158;1257;60170;-38
2023/10/08 09:16:06;;;;;;;3.50;1.20;;;;;;;10.65;45.31;98613.25;107196;1258;73878;-38
2023/10/08 09:18:35;;;;;;;5.10;1.70;;;;;;;10.79;45.58;98613.05;107230;1259;66786;-38
2023/10/08 09:21:14;;;;;;;4.40;1.20;;;;;;;10.94;45.52;98613.27;107224;1257;72689;-38
2023/10/08 09:23:43;;;;;;;2.40;1.10;;;;;;;11.03;43.82;98612.48;107270;1257;60233;-38
2023/10/08 09:26:13;;;;;;;5.40;0.80;;;;;;;11.02;44.09;98615.80;107203;1262;60348;-38
2023/10/08 09:28:48;;;;;;;2.60;1.40;;;;;;;11.03;43.67;98616.48;107057;1262;72320;-38
2023/10/08 09:31:17;;;;;;;1.90;1.10;;;;;;;11.09;43.79;98619.24;107032;1262;67565;-38
2023/10/08 09:33:55;;;;;;;4.30;1.30;;;;;;;11.17;44.05;98615.71;107073;1258;72748;-38
2023/10/08 09:36:31;;;;;;;2.30;1.20;;;;;;;11.22;43.60;98614.59;107060;1263;59992;-38
2023/10/08 09:39:04;;;;;;;3.20;1.10;;;;;;;11.18;42.70;98613.94;107040;1262;60473;-38
2023/10/08 09:41:32;;;;;;;3.00;1.10;;;;;;;11.12;43.57;98610.57;107319;1258;73936;-38
2023/10/08 09:44:00;;;;;;;3.90;1.30;;;;;;;11.06;43.44;98614.66;107083;1257;67945;-38
2023/10/08 09:46:35;;;;;;;5.40;1.10;;;;;;;11.01;43.38;98616.17;107070;1258;72689;-38
2023/10/08 09:49:06;;;;;;;3.80;1.10;;;;;;;11.01;43.89;98616.34;107238;1261;60364;-39
2023/10/08 09:51:38;;;;;;;2.20;1.10;;;;;;;11.13;43.95;98619.73;107059;1259;60335;-38
2023/10/08 09:54:18;;;;;;;2.10;1.30;;;;;;;11.30;42.84;98619.95;107246;1258;73452;-38
2023/10/08 09:56:46;;;;;;;3.30;1.60;;;;;;;11.40;40.90;98617.36;107198;1257;66335;-39
2023/10/08 09:59:14;;;;;;;2.90;1.20;;;;;;;11.43;41.11;98611.86;107115;1257;73258;-38
2023/10/08 10:01:42;;;;;;;2.10;1.20;;;;;;;11.44;41.53;98610.23;107055;1263;60507;-38
2023/10/08 10:04:23;;;;;;;2.90;1.10;;;;;;;11.52;41.93;98608.64;107184;1263;60354;-38
2023/10/08 10:06:52;;;;;;;2.70;1.00;;;;;;;11.70;41.48;98612.41;107245;1258;73875;-38
2023/10/08 10:09:21;;;;;;;3.60;1.30;;;;;;;11.85;40.77;98615.17;107075;1263;67899;-38
2023/10/08 10:11:50;;;;;;;3.00;1.20;;;;;;;11.88;39.93;98613.77;107275;1257;70633;-38
2023/10/08 10:14:18;;;;;;;4.30;1.70;;;;;;;11.85;40.05;98610.38;107270;1258;60528;-38
2023/10/08 10:16:55;;;;;;;3.60;1.20;;;;;;;11.87;40.50;98617.19;107079;1257;60065;-38
2023/10/08 10:19:23;;;;;;;1.70;1.10;;;;;;;11.92;39.32;98616.98;107189;1257;72588;-38
2023/10/08 10:21:51;;;;;;;2.70;1.10;;;;;;;11.93;39.29;98619.70;107066;1257;66462;-38
2023/10/08 10:24:34;;;;;;;3.20;1.30;;;;;;;11.89;39.51;98625.35;107032;1257;72774;-38
2023/10/08 10:27:15;;;;;;;3.60;1.10;;;;;;;11.79;38.81;98628.20;107057;1258;60590;-38
2023/10/08 10:29:43;;;;;;;2.30;1.10;;;;;;;11.66;39.03;98626.67;107233;1257;60521;-38
2023/10/08 10:32:14;;;;;;;3.80;1.20;;;;;;;11.52;39.43;98626.55;107198;1258;72583;-38
2023/10/08 10:34:43;;;;;;;1.60;1.00;;;;;;;11.37;39.02;98621.85;107112;1257;67918;-37
2023/10/08 10:37:22;;;;;;;3.20;1.20;;;;;;;11.25;38.63;98622.27;107275;1257;72667;-38
2023/10/08 10:40:00;;;;;;;4.30;1.20;;;;;;;11.30;39.73;98624.07;107050;1257;59585;-38
2023/10/08 10:42:28;;;;;;;2.60;1.00;;;;;;;11.52;38.73;98623.06;107084;1257;60174;-38
2023/10/08 10:44:58;;;;;;;2.60;1.20;;;;;;;11.78;36.41;98621.59;107163;1258;73874;-37
2023/10/08 10:47:26;;;;;;;4.10;0.90;;;;;;;12.00;34.36;98611.70;107087;1263;66628;-38
2023/10/08 10:55:20;;;;;;;1.70;0.90;;;;;;;12.47;34.93;98619.80;107069;1262;60329;-38
2023/10/08 10:57:55;;;;;;;5.50;1.40;;;;;;;12.50;35.18;98621.50;107083;1257;71800;-38
2023/10/08 11:03:04;;;;;;;2.40;1.00;;;;;;;12.40;35.59;98621.89;107203;1262;72837;-38
2023/10/08 11:05:33;;;;;;;;;;;;;;;12.40;35.99;98625.53;107213;1257;61436;-38
2023/10/08 11:08:05;;;;;;;2.20;1.10;;;;;;;12.35;35.85;98622.20;107270;1263;60352;-39
2023/10/08 11:10:46;;;;;;;2.50;1.20;;;;;;;12.27;36.38;98616.46;107203;1257;73888;-38
2023/10/08 11:13:17;;;;;;;2.50;1.00;;;;;;;12.29;37.45;98626.63;107199;1262;67577;-38
2023/10/08 11:15:49;;;;;;;1.90;1.30;;;;;;;12.44;36.37;98621.02;107052;1262;72728;-38
2023/10/08 11:18:19;;;;;;;3.10;1.20;;;;;;;12.63;35.48;98616.67;107194;1257;60568;-38
2023/10/08 11:21:00;;;;;;;3.50;1.00;;;;;;;12.85;34.76;98612.82;107194;1257;60328;-38
2023/10/08 11:23:36;;;;;;;2.00;0.80;;;;;;;13.14;33.42;98617.19;107230;1258;72620;-38
2023/10/08 11:26:05;;;;;;;2.90;1.40;;;;;;;13.35;31.40;98614.77;107207;1257;66661;-38
2023/10/08 11:28:47;;;;;;;2.30;1.10;;;;;;;13.49;31.27;98617.76;107196;1257;72693;-38
2023/10/08 11:31:19;;;;;;;3.50;0.90;;;;;;;13.57;32.13;98613.83;107208;1257;60338;-38
2023/10/08 11:33:56;;;;;;;2.40;1.10;;;;;;;13.70;32.14;98616.33;107197;1257;59302;-38
2023/10/08 11:36:33;;;;;;;2.90;1.10;;;;;;;13.85;31.27;98611.48;107174;1258;73829;-39
2023/10/08 11:39:13;;;;;;;5.10;0.90;;;;;;;14.00;30.67;98605.86;107065;1258;67621;-39
2023/10/08 11:41:50;;;;;;;3.10;1.00;;;;;;;14.21;30.28;98606.64;107066;1260;72654;-39
2023/10/08 11:44:23;;;;;;;2.10;1.20;;;;;;;14.41;30.38;98614.28;107073;1258;60332;-38
2023/10/08 11:47:00;;;;;;;3.50;1.00;;;;;;;14.63;30.08;98608.86;107079;1258;60289;-38
2023/10/08 11:49:32;;;;;;;4.10;1.10;;;;;;;14.83;27.85;98606.72;107052;1257;73954;-38
2023/10/08 11:52:00;;;;;;;1.80;0.80;;;;;;;14.86;27.12;98607.08;107083;1257;66327;-38
2023/10/08 11:54:32;;;;;;;3.20;1.00;;;;;;;14.85;28.13;98605.38;107046;1258;72727;-39
2023/10/08 11:57:02;;;;;;;3.20;1.20;;;;;;;14.96;28.21;98608.55;107063;1263;60440;-39
2023/10/08 11:59:32;;;;;;;3.60;1.00;;;;;;;15.06;27.82;98598.75;107096;1258;60405;-39
2023/10/08 12:01:59;;;;;;;3.20;1.10;;;;;;;15.10;28.16;98596.36;107072;1257;72665;-39
2023/10/08 12:04:29;;;;;;;2.10;0.90;;;;;;;15.21;27.72;98593.73;107185;1257;67928;-39
2023/10/08 12:07:01;;;;;;;22.80;12.10;;;;;;;15.37;27.08;98585.98;107088;1257;72716;-39
2023/10/08 12:09:29;;;;;;;3.40;1.90;;;;;;;15.56;27.34;98596.69;107201;1257;60477;-39
2023/10/08 12:11:57;;;;;;;2.90;0.90;;;;;;;15.77;26.60;98600.05;107093;1258;59250;-39
2023/10/08 12:14:30;;;;;;;2.50;1.00;;;;;;;15.91;25.87;98596.50;107088;1257;73887;-38
2023/10/08 12:17:00;;;;;;;4.30;1.00;;;;;;;15.90;26.07;98594.88;107102;1262;67585;-39
2023/10/08 12:19:32;;;;;;;1.60;0.80;;;;;;;15.81;25.88;98595.94;107069;1258;73112;-39
2023/10/08 12:22:02;;;;;;;1.80;0.70;;;;;;;15.86;25.10;98593.20;107044;1261;60526;-38
2023/10/08 12:24:30;;;;;;;4.00;0.90;;;;;;;15.97;24.88;98590.16;107090;1257;60332;-38
2023/10/08 12:26:58;;;;;;;5.60;1.00;;;;;;;16.08;25.59;98584.20;107087;1258;72614;-38
2023/10/08 12:29:27;;;;;;;4.10;1.00;;;;;;;16.30;25.55;98595.11;107097;1257;67900;-39
2023/10/08 12:31:54;;;;;;;3.70;1.00;;;;;;;16.49;25.26;98595.80;107085;1258;72735;-39
2023/10/08 12:34:22;;;;;;;4.10;0.80;;;;;;;16.63;25.09;98591.68;107078;1257;60453;-39
2023/10/08 12:36:51;;;;;;;6.10;1.20;;;;;;;16.70;24.77;98583.02;107228;1257;60303;-39
2023/10/08 12:39:22;;;;;;;5.50;1.10;;;;;;;16.76;25.20;98589.64;107106;1257;73815;-39
2023/10/08 12:41:53;;;;;;;1.70;0.90;;;;;;;16.91;25.24;98590.94;107239;1257;67926;-40
2023/10/08 12:44:21;;;;;;;5.70;1.10;;;;;;;17.07;24.71;98584.98;107096;1257;71764;-39
2023/10/08 12:46:49;;;;;;;4.30;1.10;;;;;;;17.19;24.24;98584.28;107088;1260;59552;-40
2023/10/08 12:49:17;;;;;;;2.80;1.30;;;;;;;17.20;24.00;98587.85;107041;1260;60566;-39
2023/10/08 12:51:45;;;;;;;2.10;1.20;;;;;;;17.13;23.61;98588.86;107049;1260;73864;-40
2023/10/08 12:54:21;;;;;;;4.00;1.20;;;;;;;17.12;24.42;98587.23;107073;1263;67942;-39
2023/10/08 12:56:49;;;;;;;3.20;1.10;;;;;;;17.23;24.59;98592.89;107001;1261;72726;-39
2023/10/08 12:59:23;;;;;;;6.90;1.00;;;;;;;17.39;24.18;98592.72;107032;1260;60345;-39
2023/10/08 13:01:53;;;;;;;4.60;1.20;;;;;;;17.60;24.46;98593.39;107047;1260;60507;-37
2023/10/08 13:04:31;;;;;;;3.00;1.10;;;;;;;17.75;23.61;98594.38;107094;1263;73934;-39
2023/10/08 13:07:02;;;;;;;4.20;0.80;;;;;;;17.71;23.38;98596.59;107064;1260;67873;-38
2023/10/08 13:09:30;;;;;;;2.20;0.80;;;;;;;17.48;23.82;98594.73;107049;1259;73122;-38
2023/10/08 13:12:02;;;;;;;3.90;1.00;;;;;;;17.19;24.49;98597.11;107028;1261;60568;-38
2023/10/08 13:14:29;;;;;;;4.20;1.40;;;;;;;16.74;24.95;98602.52;107087;1259;60452;-38
2023/10/08 13:16:57;;;;;;;4.90;1.20;;;;;;;16.18;25.70;98612.65;107080;1260;74342;-38
2023/10/08 13:19:26;;;;;;;6.70;1.30;;;;;;;15.60;26.47;98613.88;107085;1263;67605;-38
2023/10/08 13:21:54;;;;;;;2.70;1.10;;;;;;;15.07;26.60;98615.66;107051;1259;71757;-38
2023/10/08 13:24:21;;;;;;;2.50;1.20;;;;;;;14.45;26.28;98623.29;107031;1260;60418;-38
2023/10/08 13:26:52;;;;;;;1.90;1.00;;;;;;;13.85;26.95;98617.95;107027;1259;60370;-38
2023/10/08 13:29:19;;;;;;;1.90;1.00;;;;;;;13.38;27.60;98611.11;107046;1260;73839;-38
2023/10/08 13:31:47;;;;;;;4.60;0.80;;;;;;;13.01;28.17;98610.77;107035;1259;66792;-38
2023/10/08 13:34:16;;;;;;;2.50;1.20;;;;;;;12.82;28.68;98613.69;107110;1260;72714;-38